ボゴタ の空港の天気 - METARとTAF

エルドラド国際空港(ボコダ) ( SKBO / BOG ) - コロンビア ボゴタ
飛行場実況気象(Metar)
観測時間05/28 05:00 COT (05/28 10:00 UTC)
風向・風速北東 2m/s
視程10km以上
天気現象
全天の4割程度の雲 雲底高度 520m
気温11℃
湿度87%
気圧1026hPa
METARSKBO 281000Z 04003KT 9999 SCT017 11/09 Q1026 NOSIG RMK A3030
過去の天気等 Google飛行場航空写真 Wunderground天気予報

過去48時間のMETAR

飛行場予報(TAF)
発表時間: 5/27 23:30 COT (5/28 04:30 UTC)
予報対象時間: 28日1時 COT ~ 29日1時 COT
風向・風速不定 1m/s
視程10km以上
少しの雲 雲底高度 460m
28日8時 COT ~ 28日10時 COT に徐々に
風向・風速南東 5m/s
全天の4割程度の雲 雲底高度 610m
28日16時 COT ~ 28日18時 COT に一時的に
天気現象霧雨
全天の4割程度の塔状積雲 雲底高度 460m
28日20時 COT ~ 28日22時 COT に徐々に
風向・風速不定 1m/s
全天の4割程度の雲 雲底高度 460m
TAF SKBO 280430Z 2806/2906 VRB02KT 9999 FEW015
BECMG 2813/2815 14010KT SCT020
TEMPO 2821/2823 DZ SCT015TCU
BECMG 2901/2903 VRB02KT SCT015 TX20/2818Z TN09/2810Z